createdAt,value
2019-06-20T00:00:12.793Z,5.10
2019-06-20T00:02:43.089Z,4.70
2019-06-20T00:05:13.742Z,4.85
2019-06-20T00:07:44.064Z,4.25
2019-06-20T00:10:14.522Z,4.78
2019-06-20T00:12:59.562Z,4.70
2019-06-20T00:15:17.629Z,4.35
2019-06-20T00:17:47.973Z,4.50
2019-06-20T00:20:18.283Z,4.83
2019-06-20T00:22:50.298Z,4.58
2019-06-20T00:25:20.653Z,4.70
2019-06-20T00:27:50.972Z,4.90
2019-06-20T00:30:21.321Z,4.53
2019-06-20T00:32:51.719Z,4.78
2019-06-20T00:35:22.495Z,4.62
2019-06-20T00:37:53.211Z,4.83
2019-06-20T00:40:23.538Z,4.60
2019-06-20T00:42:53.902Z,4.92
2019-06-20T00:45:24.621Z,5.45
2019-06-20T00:47:54.909Z,5.30
2019-06-20T00:50:25.232Z,5.05
2019-06-20T00:52:55.591Z,5.60
2019-06-20T00:55:27.359Z,5.42
2019-06-20T00:57:57.671Z,5.50
2019-06-20T01:00:28.034Z,5.17
2019-06-20T01:02:58.734Z,5.08
2019-06-20T01:05:29.056Z,5.05
2019-06-20T01:07:59.427Z,4.80
2019-06-20T01:10:29.765Z,4.90
2019-06-20T01:13:00.157Z,5.17
2019-06-20T01:15:30.550Z,5.40
2019-06-20T01:18:00.995Z,5.35
2019-06-20T01:20:32.371Z,5.15
2019-06-20T01:23:03.021Z,5.35
2019-06-20T01:25:41.530Z,5.78
2019-06-20T01:28:11.926Z,5.60
2019-06-20T01:30:42.814Z,5.28
2019-06-20T01:33:14.628Z,5.60
2019-06-20T01:35:45.454Z,5.72
2019-06-20T01:38:15.968Z,5.75
2019-06-20T01:40:46.952Z,5.90
2019-06-20T01:43:17.362Z,5.80
2019-06-20T01:45:50.019Z,5.42
2019-06-20T01:48:20.430Z,5.92
2019-06-20T01:50:50.813Z,5.92
2019-06-20T01:53:23.611Z,5.70
2019-06-20T01:55:54.016Z,5.95
2019-06-20T01:58:25.072Z,6.45
2019-06-20T02:00:55.834Z,5.83
2019-06-20T02:03:26.231Z,5.80
2019-06-20T02:05:56.733Z,5.70
2019-06-20T02:08:27.133Z,6.08
2019-06-20T02:10:57.549Z,6.40
2019-06-20T02:13:28.661Z,6.80
2019-06-20T02:15:59.038Z,6.33
2019-06-20T02:18:29.415Z,6.35
2019-06-20T02:21:00.571Z,6.40
2019-06-20T02:23:30.911Z,6.33
2019-06-20T02:26:01.664Z,6.70
2019-06-20T02:28:32.445Z,6.62
2019-06-20T02:31:02.747Z,6.80
2019-06-20T02:33:33.085Z,7.05
2019-06-20T02:36:03.443Z,7.55
2019-06-20T02:38:33.770Z,7.00
2019-06-20T02:41:04.098Z,7.35
2019-06-20T02:43:34.621Z,6.70
2019-06-20T02:46:05.257Z,7.28
2019-06-20T02:48:35.664Z,7.25
2019-06-20T02:51:06.364Z,7.15
2019-06-20T02:53:37.742Z,7.15
2019-06-20T02:56:08.014Z,7.28
2019-06-20T02:58:38.643Z,7.78
2019-06-20T03:01:09.109Z,7.10
2019-06-20T03:03:39.477Z,7.08
2019-06-20T03:06:11.037Z,7.47
2019-06-20T03:08:41.735Z,7.03
2019-06-20T03:11:12.549Z,6.72
2019-06-20T03:13:42.947Z,6.87
2019-06-20T03:16:13.361Z,7.05
2019-06-20T03:18:45.838Z,7.10
2019-06-20T03:21:16.232Z,7.12
2019-06-20T03:23:46.683Z,6.87
2019-06-20T03:26:17.147Z,6.87
2019-06-20T03:28:48.166Z,6.12
2019-06-20T03:31:18.657Z,7.00
2019-06-20T03:33:50.302Z,6.65
2019-06-20T03:36:21.636Z,6.53
2019-06-20T03:38:51.997Z,5.97
2019-06-20T03:41:22.389Z,6.47
2019-06-20T03:43:52.801Z,6.37
2019-06-20T03:46:23.783Z,6.33
2019-06-20T03:48:54.186Z,5.97
2019-06-20T03:51:25.580Z,6.00
2019-06-20T03:53:55.974Z,6.08
2019-06-20T03:56:28.535Z,6.00
2019-06-20T03:58:58.962Z,5.97
2019-06-20T04:01:29.568Z,5.85
2019-06-20T04:04:00.401Z,5.75
2019-06-20T04:06:31.338Z,5.78
2019-06-20T04:09:02.076Z,5.10
2019-06-20T04:11:32.841Z,5.20
2019-06-20T04:14:03.350Z,5.17
2019-06-20T04:16:33.732Z,5.45
2019-06-20T04:19:04.210Z,5.30
2019-06-20T04:21:34.745Z,5.40
2019-06-20T04:24:05.223Z,5.28
2019-06-20T04:26:35.983Z,4.90
2019-06-20T04:29:07.647Z,4.62
2019-06-20T04:31:39.694Z,4.85
2019-06-20T04:34:10.346Z,4.72
2019-06-20T04:36:41.282Z,4.58
2019-06-20T04:39:19.174Z,4.65
2019-06-20T04:41:46.165Z,4.55
2019-06-20T04:44:16.658Z,4.30
2019-06-20T04:46:56.792Z,4.90
2019-06-20T04:49:27.555Z,4.28
2019-06-20T04:51:58.181Z,4.67
2019-06-20T04:54:28.920Z,4.60
2019-06-20T04:57:02.304Z,4.42
2019-06-20T04:59:32.621Z,4.37
2019-06-20T05:02:03.262Z,4.40
2019-06-20T05:04:34.161Z,4.25
2019-06-20T05:07:11.557Z,4.25
2019-06-20T05:09:42.010Z,4.10
2019-06-20T05:12:12.665Z,3.98
2019-06-20T05:14:43.097Z,4.45
2019-06-20T05:17:13.742Z,4.40
2019-06-20T05:19:44.134Z,3.98
2019-06-20T05:22:14.547Z,4.28
2019-06-20T05:24:45.968Z,4.08
2019-06-20T05:27:16.656Z,3.80
2019-06-20T05:29:47.544Z,4.05
2019-06-20T05:32:17.963Z,4.58
2019-06-20T05:34:48.813Z,4.72
2019-06-20T05:37:19.326Z,4.20
2019-06-20T05:39:49.636Z,3.95
2019-06-20T05:42:20.315Z,4.15
2019-06-20T05:44:51.532Z,3.95
2019-06-20T05:47:21.958Z,4.17
2019-06-20T05:49:52.370Z,3.80
2019-06-20T05:52:23.221Z,3.90
2019-06-20T05:54:53.539Z,4.35
2019-06-20T05:57:23.935Z,4.08
2019-06-20T05:59:54.773Z,4.17
2019-06-20T06:02:25.142Z,3.80
2019-06-20T06:04:55.538Z,3.92
2019-06-20T06:07:27.257Z,3.87
2019-06-20T06:09:57.729Z,3.80
2019-06-20T06:12:28.163Z,3.95
2019-06-20T06:15:00.975Z,4.12
2019-06-20T06:17:31.773Z,3.83
2019-06-20T06:20:02.353Z,4.08
2019-06-20T06:22:33.575Z,4.08
2019-06-20T06:25:04.901Z,4.00
2019-06-20T06:27:35.528Z,4.10
2019-06-20T06:30:07.248Z,4.12
2019-06-20T06:32:40.410Z,4.10
2019-06-20T06:35:11.506Z,4.33
2019-06-20T06:37:42.910Z,3.95
2019-06-20T06:40:14.497Z,3.83
2019-06-20T06:42:45.059Z,3.92
2019-06-20T06:45:17.103Z,4.00
2019-06-20T06:47:47.439Z,3.90
2019-06-20T06:50:19.011Z,4.08
2019-06-20T06:52:53.558Z,3.70
2019-06-20T06:55:27.348Z,3.75
2019-06-20T06:57:56.350Z,3.22
2019-06-20T07:00:28.410Z,3.65
2019-06-20T07:02:58.780Z,3.30
2019-06-20T07:05:29.276Z,3.40
2019-06-20T07:07:59.662Z,3.30
2019-06-20T07:10:31.325Z,3.05
2019-06-20T07:13:01.878Z,2.90
2019-06-20T07:15:32.584Z,3.27
2019-06-20T07:18:05.401Z,2.80
2019-06-20T07:20:38.220Z,2.92
2019-06-20T07:23:08.548Z,2.92
2019-06-20T07:25:40.106Z,3.40
2019-06-20T07:28:10.756Z,3.12
2019-06-20T07:30:41.227Z,2.77
2019-06-20T07:33:12.062Z,2.80
2019-06-20T07:35:42.510Z,2.72
2019-06-20T07:38:12.920Z,2.80
2019-06-20T07:40:43.268Z,2.70
2019-06-20T07:43:14.974Z,3.05
2019-06-20T07:46:01.588Z,2.62
2019-06-20T07:48:17.792Z,2.42
2019-06-20T07:50:48.573Z,2.98
2019-06-20T07:53:22.814Z,2.98
2019-06-20T07:55:53.350Z,2.85
2019-06-20T07:58:23.696Z,3.27
2019-06-20T08:00:54.604Z,3.35
2019-06-20T08:03:25.288Z,3.20
2019-06-20T08:05:55.652Z,3.02
2019-06-20T08:08:26.357Z,3.08
2019-06-20T08:10:56.726Z,3.02
2019-06-20T08:13:27.436Z,3.10
2019-06-20T08:15:57.983Z,2.72
2019-06-20T08:18:28.480Z,2.75
2019-06-20T08:20:59.309Z,3.20
2019-06-20T08:23:29.752Z,2.90
2019-06-20T08:26:00.525Z,2.90
2019-06-20T08:28:31.061Z,2.62
2019-06-20T08:31:02.546Z,2.47
2019-06-20T08:33:33.507Z,2.65
2019-06-20T08:36:04.584Z,2.72
2019-06-20T08:38:35.065Z,2.20
2019-06-20T08:41:06.599Z,2.60
2019-06-20T08:43:37.897Z,2.70
2019-06-20T08:46:10.385Z,2.52
2019-06-20T08:48:40.300Z,2.50
2019-06-20T08:51:14.350Z,2.20
2019-06-20T08:53:43.000Z,2.60
2019-06-20T08:56:13.604Z,2.65
2019-06-20T08:58:44.347Z,2.52
2019-06-20T09:01:14.725Z,2.42
2019-06-20T09:03:45.428Z,2.40
2019-06-20T09:06:15.818Z,2.20
2019-06-20T09:08:46.201Z,2.15
2019-06-20T09:11:16.595Z,2.30
2019-06-20T09:13:46.951Z,2.20
2019-06-20T09:16:24.522Z,2.40
2019-06-20T09:18:53.223Z,2.20
2019-06-20T09:21:23.002Z,2.30
2019-06-20T09:23:54.167Z,2.17
2019-06-20T09:26:24.675Z,2.50
2019-06-20T09:28:55.661Z,2.30
2019-06-20T09:31:26.131Z,2.10
2019-06-20T09:34:02.422Z,2.25
2019-06-20T09:36:31.794Z,2.33
2019-06-20T09:39:03.741Z,2.30
2019-06-20T09:41:34.523Z,2.60
2019-06-20T09:44:05.418Z,2.27
2019-06-20T09:46:36.534Z,2.30
2019-06-20T09:49:07.245Z,2.72
2019-06-20T09:51:38.875Z,2.40
2019-06-20T09:54:10.104Z,2.60
2019-06-20T09:56:47.014Z,3.17
2019-06-20T09:59:27.168Z,2.62
2019-06-20T10:01:50.057Z,2.70
2019-06-20T10:04:21.573Z,3.15
2019-06-20T10:06:52.367Z,2.87
2019-06-20T10:09:22.854Z,2.77
2019-06-20T10:11:54.100Z,3.02
2019-06-20T10:14:24.910Z,3.05
2019-06-20T10:16:58.316Z,2.72
2019-06-20T10:19:29.017Z,3.40
2019-06-20T10:22:01.692Z,3.72
2019-06-20T10:24:32.061Z,3.37
2019-06-20T10:27:03.901Z,3.40
2019-06-20T10:29:34.334Z,3.22
2019-06-20T10:32:05.576Z,3.25
2019-06-20T10:34:37.051Z,3.10
2019-06-20T10:37:07.452Z,2.83
2019-06-20T10:39:38.084Z,3.12
2019-06-20T10:42:08.772Z,3.02
2019-06-20T10:44:39.150Z,3.08
2019-06-20T10:47:10.662Z,2.98
2019-06-20T10:49:42.928Z,2.87
2019-06-20T10:52:14.571Z,2.92
2019-06-20T10:54:47.289Z,3.40
2019-06-20T10:57:17.638Z,3.12
2019-06-20T10:59:48.461Z,3.10
2019-06-20T11:02:19.735Z,2.90
2019-06-20T11:04:50.024Z,2.83
2019-06-20T11:07:21.340Z,3.33
2019-06-20T11:09:52.064Z,3.15
2019-06-20T11:12:22.416Z,3.17
2019-06-20T11:14:52.889Z,3.02
2019-06-20T11:17:23.597Z,2.87
2019-06-20T11:19:54.186Z,3.02
2019-06-20T11:22:24.551Z,3.12
2019-06-20T11:24:56.003Z,2.92
2019-06-20T11:27:26.567Z,3.05
2019-06-20T11:29:57.426Z,3.15
2019-06-20T11:32:27.913Z,3.17
2019-06-20T11:34:58.301Z,2.87
2019-06-20T11:37:28.735Z,3.30
2019-06-20T11:40:00.211Z,3.05
2019-06-20T11:42:30.645Z,3.08
2019-06-20T11:45:01.011Z,3.20
2019-06-20T11:47:31.517Z,3.30
2019-06-20T11:50:02.055Z,3.47
2019-06-20T11:52:38.134Z,3.50
2019-06-20T11:55:05.079Z,3.30
2019-06-20T11:57:37.478Z,3.12
2019-06-20T12:00:08.848Z,3.00
2019-06-20T12:02:42.775Z,3.60
2019-06-20T12:05:14.781Z,3.50
2019-06-20T12:07:45.713Z,3.83
2019-06-20T12:10:18.039Z,3.80
2019-06-20T12:12:49.525Z,3.87
2019-06-20T12:15:21.048Z,4.10
2019-06-20T12:17:51.594Z,4.05
2019-06-20T12:20:23.143Z,4.35
2019-06-20T12:22:53.559Z,3.80
2019-06-20T12:25:24.189Z,3.90
2019-06-20T12:27:54.660Z,3.77
2019-06-20T12:30:25.194Z,3.85
2019-06-20T12:32:55.664Z,4.58
2019-06-20T12:35:25.996Z,4.80
2019-06-20T12:37:56.528Z,4.40
2019-06-20T12:40:27.294Z,4.50
2019-06-20T12:42:57.729Z,5.00
2019-06-20T12:45:28.491Z,4.78
2019-06-20T12:47:59.025Z,4.92
2019-06-20T12:50:29.434Z,4.62
2019-06-20T12:52:59.949Z,4.55
2019-06-20T12:55:30.290Z,4.58
2019-06-20T12:58:00.775Z,5.10
2019-06-20T13:00:32.231Z,5.15
2019-06-20T13:03:03.170Z,5.15
2019-06-20T13:05:33.566Z,6.00
2019-06-20T13:08:04.634Z,6.60
2019-06-20T13:10:35.271Z,6.83
2019-06-20T13:13:05.743Z,6.75
2019-06-20T13:15:36.216Z,7.55
2019-06-20T13:18:06.815Z,6.78
2019-06-20T13:20:40.625Z,7.40
2019-06-20T13:23:12.572Z,7.20
2019-06-20T13:25:44.473Z,7.50
2019-06-20T13:28:15.414Z,8.75
2019-06-20T13:30:49.858Z,7.97
2019-06-20T13:33:18.332Z,8.83
2019-06-20T13:35:50.899Z,9.03
2019-06-20T13:38:21.304Z,8.45
2019-06-20T13:40:51.726Z,8.30
2019-06-20T13:43:24.611Z,8.38
2019-06-20T13:45:55.321Z,9.03
2019-06-20T13:48:25.727Z,8.25
2019-06-20T13:50:56.409Z,8.68
2019-06-20T13:53:26.939Z,9.05
2019-06-20T13:55:57.346Z,8.95
2019-06-20T13:58:27.896Z,8.88
2019-06-20T14:01:00.332Z,9.15
2019-06-20T14:03:31.329Z,9.08
2019-06-20T14:06:01.967Z,8.25
2019-06-20T14:08:32.502Z,8.53
2019-06-20T14:11:03.025Z,8.35
2019-06-20T14:13:33.491Z,8.95
2019-06-20T14:16:04.145Z,8.93
2019-06-20T14:18:34.995Z,9.93
2019-06-20T14:21:05.792Z,9.78
2019-06-20T14:23:36.634Z,10.00
2019-06-20T14:26:07.359Z,9.78
2019-06-20T14:28:37.838Z,9.83
2019-06-20T14:31:08.580Z,9.53
2019-06-20T14:33:42.472Z,10.40
2019-06-20T14:36:11.335Z,9.80
2019-06-20T14:38:43.895Z,11.10
2019-06-20T14:41:14.546Z,9.83
2019-06-20T14:43:46.154Z,9.95
2019-06-20T14:46:17.277Z,10.45
2019-06-20T14:48:56.805Z,11.03
2019-06-20T14:51:30.199Z,10.98
2019-06-20T14:54:03.650Z,11.55
2019-06-20T14:56:44.514Z,11.10
2019-06-20T14:59:14.343Z,11.73
2019-06-20T15:01:55.506Z,11.90
2019-06-20T15:04:26.419Z,12.58
2019-06-20T15:06:56.893Z,11.48
2019-06-20T15:09:27.277Z,12.33
2019-06-20T15:11:57.729Z,12.33
2019-06-20T15:14:28.147Z,12.23
2019-06-20T15:16:58.757Z,12.68
2019-06-20T15:19:29.279Z,11.83
2019-06-20T15:22:01.346Z,11.90
2019-06-20T15:24:31.948Z,11.60
2019-06-20T15:27:02.311Z,12.53
2019-06-20T15:29:32.577Z,12.53
2019-06-20T15:32:02.954Z,13.00
2019-06-20T15:34:36.825Z,13.10
2019-06-20T15:37:07.958Z,12.05
2019-06-20T15:39:38.891Z,12.58
2019-06-20T15:42:09.374Z,11.63
2019-06-20T15:44:39.944Z,12.23
2019-06-20T15:47:10.367Z,12.03
2019-06-20T15:49:42.166Z,12.05
2019-06-20T15:52:15.303Z,12.23
2019-06-20T15:54:49.742Z,11.95
2019-06-20T15:57:27.844Z,11.95
2019-06-20T15:59:58.534Z,11.50
2019-06-20T16:02:29.347Z,11.53
2019-06-20T16:04:59.746Z,11.88
2019-06-20T16:07:33.134Z,11.15
2019-06-20T16:10:04.998Z,11.12
2019-06-20T16:12:35.499Z,11.28
2019-06-20T16:15:07.033Z,10.60
2019-06-20T16:17:37.813Z,11.20
2019-06-20T16:20:09.920Z,11.15
2019-06-20T16:22:40.438Z,10.63
2019-06-20T16:25:11.155Z,10.53
2019-06-20T16:27:41.475Z,9.95
2019-06-20T16:30:14.038Z,10.38
2019-06-20T16:32:50.065Z,10.10
2019-06-20T16:35:28.853Z,10.43
2019-06-20T16:37:59.162Z,10.00
2019-06-20T16:40:48.843Z,9.38
2019-06-20T16:43:19.308Z,9.20
2019-06-20T16:45:49.895Z,8.58
2019-06-20T16:48:20.595Z,9.38
2019-06-20T16:50:50.991Z,9.08
2019-06-20T16:53:23.441Z,8.83
2019-06-20T16:55:54.768Z,9.38
2019-06-20T16:58:25.133Z,9.35
2019-06-20T17:00:55.877Z,8.48
2019-06-20T17:09:44.422Z,9.78
2019-06-20T17:12:15.007Z,8.50
2019-06-20T17:14:45.424Z,8.28
2019-06-20T17:17:15.942Z,8.30
2019-06-20T17:19:46.765Z,6.95
2019-06-20T17:22:17.521Z,7.67
2019-06-20T17:24:47.883Z,7.00
2019-06-20T17:27:18.261Z,6.87
2019-06-20T17:29:48.584Z,6.65
2019-06-20T17:32:19.002Z,6.28
2019-06-20T17:34:50.293Z,6.10
2019-06-20T17:37:21.052Z,6.33
2019-06-20T17:39:51.427Z,6.50
2019-06-20T17:42:22.228Z,6.35
2019-06-20T17:44:53.935Z,6.37
2019-06-20T17:47:24.753Z,6.67
2019-06-20T17:49:55.044Z,6.40
2019-06-20T17:52:25.748Z,6.35
2019-06-20T17:54:56.913Z,6.83
2019-06-20T17:57:27.557Z,7.15
2019-06-20T17:59:58.123Z,7.40
2019-06-20T18:02:28.523Z,7.03
2019-06-20T18:04:59.231Z,7.47
2019-06-20T18:07:30.672Z,7.47
2019-06-20T18:10:01.049Z,7.53
2019-06-20T18:12:31.461Z,7.70
2019-06-20T18:15:02.927Z,7.40
2019-06-20T18:17:33.337Z,8.38
2019-06-20T18:20:03.650Z,7.78
2019-06-20T18:22:33.940Z,7.50
2019-06-20T18:25:07.151Z,7.78
2019-06-20T18:27:37.463Z,7.95
2019-06-20T18:30:08.569Z,8.13
2019-06-20T18:32:39.217Z,8.08
2019-06-20T18:35:10.224Z,8.08
2019-06-20T18:37:40.968Z,8.50
2019-06-20T18:40:14.822Z,8.70
2019-06-20T18:42:47.990Z,8.30
2019-06-20T18:45:18.678Z,8.53
2019-06-20T18:47:49.067Z,8.43
2019-06-20T18:50:19.885Z,8.20
2019-06-20T18:52:52.551Z,8.43
2019-06-20T18:55:22.688Z,8.95
2019-06-20T18:57:53.060Z,8.18
2019-06-20T19:00:34.129Z,8.55
2019-06-20T19:02:55.985Z,8.18
2019-06-20T19:05:26.788Z,8.28
2019-06-20T19:07:57.125Z,8.00
2019-06-20T19:10:28.184Z,8.08
2019-06-20T19:12:58.870Z,8.33
2019-06-20T19:15:30.783Z,7.85
2019-06-20T19:18:01.141Z,7.60
2019-06-20T19:20:31.801Z,7.67
2019-06-20T19:23:02.518Z,7.67
2019-06-20T19:25:32.989Z,7.50
2019-06-20T19:28:05.019Z,6.90
2019-06-20T19:30:43.817Z,6.95
2019-06-20T19:33:14.101Z,7.17
2019-06-20T19:35:44.435Z,7.33
2019-06-20T19:38:15.326Z,7.58
2019-06-20T19:40:47.379Z,7.28
2019-06-20T19:43:18.142Z,7.70
2019-06-20T19:45:49.139Z,7.30
2019-06-20T19:48:19.725Z,7.37
2019-06-20T19:50:50.060Z,7.33
2019-06-20T19:53:20.576Z,7.47
2019-06-20T19:55:50.956Z,6.97
2019-06-20T19:58:21.620Z,7.90
2019-06-20T20:00:52.102Z,8.00
2019-06-20T20:03:23.519Z,7.40
2019-06-20T20:05:53.934Z,7.95
2019-06-20T20:08:24.349Z,7.40
2019-06-20T20:10:54.994Z,7.92
2019-06-20T20:13:27.331Z,8.08
2019-06-20T20:15:57.670Z,7.78
2019-06-20T20:18:28.230Z,7.95
2019-06-20T20:20:58.577Z,7.65
2019-06-20T20:23:29.003Z,7.75
2019-06-20T20:25:59.375Z,8.38
2019-06-20T20:28:29.715Z,8.10
2019-06-20T20:31:00.073Z,8.35
2019-06-20T20:33:30.511Z,8.78
2019-06-20T20:36:02.063Z,9.03
2019-06-20T20:38:32.913Z,8.98
2019-06-20T20:41:03.355Z,9.33
2019-06-20T20:43:33.691Z,8.40
2019-06-20T20:46:04.104Z,9.13
2019-06-20T20:48:34.477Z,9.55
2019-06-20T20:51:04.934Z,9.35
2019-06-20T20:53:35.312Z,10.05
2019-06-20T20:56:05.688Z,9.80
2019-06-20T20:58:36.080Z,9.45
2019-06-20T21:01:18.748Z,9.58
2019-06-20T21:03:49.069Z,9.65
2019-06-20T21:06:23.208Z,10.32
2019-06-20T21:08:52.305Z,10.10
2019-06-20T21:11:22.380Z,10.05
2019-06-20T21:13:53.083Z,9.70
2019-06-20T21:16:23.496Z,10.00
2019-06-20T21:18:53.845Z,10.30
2019-06-20T21:21:24.219Z,10.50
2019-06-20T21:23:56.110Z,10.30
2019-06-20T21:26:26.427Z,10.30
2019-06-20T21:28:57.605Z,10.60
2019-06-20T21:31:27.945Z,10.85
2019-06-20T21:33:58.273Z,11.05
2019-06-20T21:36:29.172Z,11.48
2019-06-20T21:38:59.490Z,11.08
2019-06-20T21:41:29.803Z,11.40
2019-06-20T21:44:00.710Z,11.83
2019-06-20T21:46:33.051Z,11.70
2019-06-20T21:49:04.056Z,11.03
2019-06-20T21:51:35.124Z,10.95
2019-06-20T21:54:07.690Z,11.93
2019-06-20T21:56:38.024Z,11.53
2019-06-20T21:59:08.467Z,11.55
2019-06-20T22:01:39.572Z,11.83
2019-06-20T22:04:10.533Z,12.43
2019-06-20T22:06:42.730Z,12.23
2019-06-20T22:09:13.179Z,12.90
2019-06-20T22:11:43.936Z,12.03
2019-06-20T22:14:14.509Z,13.68
2019-06-20T22:16:45.507Z,13.55
2019-06-20T22:19:15.799Z,13.03
2019-06-20T22:21:46.711Z,12.10
2019-06-20T22:24:17.199Z,12.55
2019-06-20T22:26:48.015Z,13.50
2019-06-20T22:29:18.178Z,13.05
2019-06-20T22:31:48.580Z,13.68
2019-06-20T22:34:19.679Z,13.25
2019-06-20T22:36:50.047Z,13.88
2019-06-20T22:39:20.400Z,13.45
2019-06-20T22:41:50.715Z,13.38
2019-06-20T22:44:21.463Z,12.93
2019-06-20T22:46:51.798Z,14.43
2019-06-20T22:49:22.787Z,15.85
2019-06-20T22:51:53.493Z,15.98
2019-06-20T22:54:23.912Z,16.55
2019-06-20T22:56:54.267Z,16.25
2019-06-20T22:59:24.690Z,16.15
2019-06-20T23:01:55.049Z,17.23
2019-06-20T23:04:27.681Z,16.15
2019-06-20T23:06:58.017Z,17.17
2019-06-20T23:09:29.213Z,17.23
2019-06-20T23:11:59.644Z,18.95
2019-06-20T23:14:30.004Z,17.80
2019-06-20T23:17:00.702Z,18.32
2019-06-20T23:19:31.120Z,19.25
2019-06-20T23:22:01.435Z,19.12
2019-06-20T23:24:32.292Z,18.15
2019-06-20T23:27:02.703Z,19.55
2019-06-20T23:29:33.407Z,18.73
2019-06-20T23:32:03.991Z,18.95
2019-06-20T23:34:37.457Z,21.27
2019-06-20T23:37:12.664Z,19.35
2019-06-20T23:39:39.798Z,18.45
2019-06-20T23:42:10.164Z,18.48
2019-06-20T23:44:40.451Z,16.65
2019-06-20T23:47:11.641Z,16.42
2019-06-20T23:49:41.969Z,15.60
2019-06-20T23:52:16.833Z,16.25
2019-06-20T23:54:48.169Z,17.90
2019-06-20T23:57:21.983Z,16.42
2019-06-20T23:59:52.310Z,17.50
